createdAt,value
2022-08-31T00:00:40.752Z,2.60
2022-08-31T00:03:28.733Z,4.88
2022-08-31T00:06:01.130Z,1.33
2022-08-31T00:08:36.625Z,2.00
2022-08-31T00:11:03.929Z,4.00
2022-08-31T00:13:36.916Z,3.53
2022-08-31T00:16:04.808Z,3.42
2022-08-31T00:18:32.025Z,2.10
2022-08-31T00:20:59.446Z,3.38
2022-08-31T00:23:26.738Z,5.03
2022-08-31T00:25:54.057Z,1.73
2022-08-31T00:28:21.636Z,1.98
2022-08-31T00:30:49.653Z,3.22
2022-08-31T00:33:17.458Z,4.15
2022-08-31T00:35:47.399Z,1.30
2022-08-31T00:38:17.212Z,2.30
2022-08-31T00:40:49.495Z,4.57
2022-08-31T00:43:48.830Z,3.35
2022-08-31T00:46:21.985Z,2.20
2022-08-31T00:49:11.955Z,3.05
2022-08-31T00:51:59.198Z,1.58
2022-08-31T00:54:33.593Z,1.40
2022-08-31T00:57:04.178Z,2.75
2022-08-31T00:59:34.177Z,2.90
2022-08-31T01:02:04.541Z,3.58
2022-08-31T01:04:31.817Z,3.30
2022-08-31T01:06:59.522Z,1.52
2022-08-31T01:09:32.977Z,2.72
2022-08-31T01:12:03.156Z,1.83
2022-08-31T01:14:30.497Z,4.55
2022-08-31T01:17:00.163Z,1.80
2022-08-31T01:19:32.622Z,2.72
2022-08-31T01:22:07.242Z,1.65
2022-08-31T01:24:38.488Z,2.05
2022-08-31T01:27:08.862Z,3.60
2022-08-31T01:29:36.427Z,4.07
2022-08-31T01:32:05.510Z,2.35
2022-08-31T01:34:34.218Z,1.40
2022-08-31T01:37:06.461Z,6.13
2022-08-31T01:39:33.752Z,3.80
2022-08-31T01:42:00.983Z,3.72
2022-08-31T01:44:28.891Z,2.28
2022-08-31T01:46:56.543Z,2.40
2022-08-31T01:49:24.260Z,2.95
2022-08-31T01:51:53.403Z,2.90
2022-08-31T01:54:25.075Z,1.92
2022-08-31T01:56:52.346Z,1.77
2022-08-31T01:59:23.005Z,1.90
2022-08-31T02:01:53.329Z,1.67
2022-08-31T02:04:27.342Z,2.13
2022-08-31T02:06:57.390Z,1.98
2022-08-31T02:09:25.533Z,2.67
2022-08-31T02:11:53.290Z,5.10
2022-08-31T02:14:21.777Z,1.60
2022-08-31T02:16:49.385Z,2.28
2022-08-31T02:19:21.028Z,3.30
2022-08-31T02:21:48.222Z,2.00
2022-08-31T02:24:17.706Z,2.53
2022-08-31T02:26:51.657Z,5.85
2022-08-31T02:29:21.351Z,3.72
2022-08-31T02:31:48.618Z,2.88
2022-08-31T02:34:18.241Z,1.92
2022-08-31T02:36:45.835Z,2.50
2022-08-31T02:39:14.869Z,1.85
2022-08-31T02:41:42.407Z,3.72
2022-08-31T02:44:09.640Z,2.45
2022-08-31T02:46:39.248Z,3.88
2022-08-31T02:49:06.785Z,3.35
2022-08-31T02:51:34.101Z,3.03
2022-08-31T02:54:01.247Z,2.85
2022-08-31T02:56:28.456Z,2.20
2022-08-31T02:58:59.111Z,3.47
2022-08-31T03:01:32.010Z,2.45
2022-08-31T03:04:00.901Z,2.00
2022-08-31T03:06:31.818Z,3.05
2022-08-31T03:09:01.378Z,3.47
2022-08-31T03:11:31.432Z,1.73
2022-08-31T03:13:59.016Z,2.72
2022-08-31T03:16:31.003Z,3.05
2022-08-31T03:19:00.314Z,1.58
2022-08-31T03:21:27.484Z,3.17
2022-08-31T03:23:57.179Z,2.15
2022-08-31T03:26:24.469Z,2.22
2022-08-31T03:28:51.634Z,2.53
2022-08-31T03:31:22.542Z,4.63
2022-08-31T03:33:52.066Z,2.13
2022-08-31T03:36:21.312Z,3.47
2022-08-31T03:38:50.617Z,2.10
2022-08-31T03:41:23.635Z,2.40
2022-08-31T03:43:51.807Z,1.95
2022-08-31T03:46:21.654Z,2.88
2022-08-31T03:48:49.920Z,2.55
2022-08-31T03:51:18.132Z,3.17
2022-08-31T03:53:47.647Z,3.80
2022-08-31T03:56:14.850Z,3.80
2022-08-31T03:58:42.027Z,2.88
2022-08-31T04:01:14.285Z,1.65
2022-08-31T04:03:41.584Z,2.35
2022-08-31T04:06:13.434Z,3.20
2022-08-31T04:08:43.385Z,3.05
2022-08-31T04:11:19.804Z,2.75
2022-08-31T04:14:08.841Z,3.38
2022-08-31T04:16:40.725Z,4.60
2022-08-31T04:19:15.974Z,2.60
2022-08-31T04:21:44.485Z,4.32
2022-08-31T04:24:12.229Z,4.65
2022-08-31T04:26:43.311Z,4.07
2022-08-31T04:29:13.280Z,2.53
2022-08-31T04:31:43.046Z,3.72
2022-08-31T04:34:15.488Z,3.45
2022-08-31T04:36:45.356Z,3.88
2022-08-31T04:39:13.080Z,4.00
2022-08-31T04:41:43.502Z,3.28
2022-08-31T04:44:12.287Z,3.40
2022-08-31T04:46:44.002Z,2.33
2022-08-31T04:49:11.656Z,2.45
2022-08-31T04:51:39.395Z,3.33
2022-08-31T04:54:09.512Z,3.00
2022-08-31T04:56:43.831Z,3.92
2022-08-31T04:59:14.554Z,3.33
2022-08-31T05:01:45.508Z,2.70
2022-08-31T05:04:15.680Z,3.97
2022-08-31T05:06:51.219Z,3.30
2022-08-31T05:09:22.661Z,4.93
2022-08-31T05:11:52.163Z,3.60
2022-08-31T05:14:22.103Z,3.95
2022-08-31T05:16:52.670Z,3.17
2022-08-31T05:19:20.609Z,2.90
2022-08-31T05:21:48.269Z,3.45
2022-08-31T05:24:18.607Z,2.42
2022-08-31T05:26:52.787Z,5.57
2022-08-31T05:29:26.922Z,5.45
2022-08-31T05:31:54.533Z,4.72
2022-08-31T05:34:22.888Z,2.92
2022-08-31T05:36:53.522Z,3.47
2022-08-31T05:39:20.942Z,6.03
2022-08-31T05:41:48.650Z,3.88
2022-08-31T05:44:21.229Z,8.75
2022-08-31T05:47:03.662Z,1.90
2022-08-31T05:49:32.621Z,4.97
2022-08-31T05:52:01.216Z,3.13
2022-08-31T05:54:33.380Z,7.25
2022-08-31T05:57:04.323Z,3.25
2022-08-31T05:59:31.676Z,2.17
2022-08-31T06:02:02.073Z,3.72
2022-08-31T06:04:32.181Z,5.50
2022-08-31T06:07:01.719Z,3.67
2022-08-31T06:09:29.568Z,5.05
2022-08-31T06:11:59.108Z,3.97
2022-08-31T06:14:33.568Z,5.43
2022-08-31T06:17:03.417Z,6.13
2022-08-31T06:19:32.910Z,4.75
2022-08-31T06:22:02.806Z,2.70
2022-08-31T06:24:37.022Z,3.97
2022-08-31T06:27:06.084Z,3.65
2022-08-31T06:29:35.999Z,3.97
2022-08-31T06:32:08.809Z,5.85
2022-08-31T06:34:37.492Z,6.25
2022-08-31T06:37:05.789Z,3.28
2022-08-31T06:39:35.461Z,2.85
2022-08-31T06:42:04.900Z,2.35
2022-08-31T06:44:34.166Z,2.55
2022-08-31T06:47:01.386Z,2.78
2022-08-31T06:49:28.594Z,6.95
2022-08-31T06:51:58.047Z,2.15
2022-08-31T06:54:29.895Z,5.45
2022-08-31T06:57:02.742Z,4.32
2022-08-31T06:59:33.369Z,3.67
2022-08-31T07:02:01.696Z,2.33
2022-08-31T07:04:36.784Z,5.15
2022-08-31T07:07:06.777Z,3.88
2022-08-31T07:09:34.679Z,3.53
2022-08-31T07:12:02.063Z,9.25
2022-08-31T07:14:31.484Z,3.30
2022-08-31T07:17:03.131Z,2.53
2022-08-31T07:19:31.354Z,2.88
2022-08-31T07:22:05.000Z,2.35
2022-08-31T07:24:36.089Z,4.05
2022-08-31T07:27:10.081Z,4.20
2022-08-31T07:29:40.587Z,3.03
2022-08-31T07:32:09.955Z,4.80
2022-08-31T07:34:41.066Z,5.00
2022-08-31T07:37:26.766Z,4.22
2022-08-31T07:40:13.368Z,3.55
2022-08-31T07:42:45.094Z,3.28
2022-08-31T07:45:23.213Z,4.00
2022-08-31T07:47:57.743Z,2.95
2022-08-31T07:50:27.293Z,3.83
2022-08-31T07:53:00.313Z,3.60
2022-08-31T07:55:35.057Z,3.15
2022-08-31T07:58:15.507Z,8.88
2022-08-31T08:00:49.431Z,3.72
2022-08-31T08:03:20.261Z,8.02
2022-08-31T08:05:53.462Z,4.68
2022-08-31T08:08:22.912Z,3.30
2022-08-31T08:10:53.074Z,6.85
2022-08-31T08:13:23.234Z,4.10
2022-08-31T08:15:52.104Z,4.50
2022-08-31T08:18:20.181Z,6.28
2022-08-31T08:20:49.892Z,5.05
2022-08-31T08:23:28.187Z,6.93
2022-08-31T08:26:01.218Z,4.07
2022-08-31T08:28:40.449Z,8.85
2022-08-31T08:31:17.663Z,4.30
2022-08-31T08:33:45.887Z,7.07
2022-08-31T08:36:18.217Z,10.13
2022-08-31T08:38:48.015Z,3.63
2022-08-31T08:41:23.996Z,5.38
2022-08-31T08:43:58.704Z,7.50
2022-08-31T08:46:57.356Z,8.40
2022-08-31T08:49:24.831Z,7.45
2022-08-31T08:52:03.335Z,5.38
2022-08-31T08:54:39.069Z,7.00
2022-08-31T08:57:20.615Z,7.57
2022-08-31T08:59:51.125Z,7.10
2022-08-31T09:02:25.767Z,3.90
2022-08-31T09:05:30.736Z,6.05
2022-08-31T09:08:10.282Z,5.72
2022-08-31T09:11:06.499Z,9.25
2022-08-31T09:13:57.717Z,8.13
2022-08-31T09:16:44.688Z,7.53
2022-08-31T09:19:15.730Z,5.78
2022-08-31T09:21:50.411Z,8.30
2022-08-31T09:24:20.916Z,7.38
2022-08-31T09:27:17.732Z,5.13
2022-08-31T09:29:57.148Z,5.75
2022-08-31T09:32:27.102Z,7.90
2022-08-31T09:35:14.777Z,11.60
2022-08-31T09:37:47.633Z,3.97
2022-08-31T09:40:43.766Z,8.38
2022-08-31T09:43:30.173Z,4.75
2022-08-31T09:46:10.154Z,5.70
2022-08-31T09:48:52.497Z,3.90
2022-08-31T09:51:33.828Z,4.80
2022-08-31T09:54:34.876Z,6.80
2022-08-31T09:57:05.956Z,4.60
2022-08-31T09:59:42.005Z,4.93
2022-08-31T10:02:24.499Z,6.15
2022-08-31T10:05:00.987Z,6.18
2022-08-31T10:07:53.105Z,5.10
2022-08-31T10:10:32.544Z,5.22
2022-08-31T10:13:04.443Z,9.18
2022-08-31T10:15:41.221Z,4.43
2022-08-31T10:18:19.788Z,5.85
2022-08-31T10:21:07.888Z,7.78
2022-08-31T10:23:54.551Z,10.32
2022-08-31T10:26:42.688Z,6.85
2022-08-31T10:29:21.144Z,5.47
2022-08-31T10:31:58.677Z,4.82
2022-08-31T10:34:54.599Z,5.50
2022-08-31T10:37:32.373Z,11.02
2022-08-31T10:40:18.071Z,6.50
2022-08-31T10:42:59.248Z,12.80
2022-08-31T10:45:28.948Z,13.38
2022-08-31T10:48:01.155Z,9.93
2022-08-31T10:50:45.189Z,7.97
2022-08-31T10:53:40.332Z,7.22
2022-08-31T10:56:24.128Z,10.98
2022-08-31T10:59:19.384Z,7.90
2022-08-31T11:01:56.333Z,10.65
2022-08-31T11:04:42.466Z,11.23
2022-08-31T11:07:26.894Z,9.82
2022-08-31T11:10:20.389Z,8.88
2022-08-31T11:12:57.554Z,8.57
2022-08-31T11:15:40.262Z,6.85
2022-08-31T11:18:10.628Z,8.38
2022-08-31T11:21:08.494Z,10.88
2022-08-31T11:23:50.022Z,11.65
2022-08-31T11:26:35.982Z,10.93
2022-08-31T11:29:21.681Z,9.95
2022-08-31T11:31:50.032Z,12.50
2022-08-31T11:34:27.565Z,9.63
2022-08-31T11:36:56.312Z,9.35
2022-08-31T11:39:44.465Z,15.13
2022-08-31T11:42:35.189Z,12.55
2022-08-31T11:45:23.184Z,10.77
2022-08-31T11:47:55.027Z,17.17
2022-08-31T11:50:24.758Z,15.57
2022-08-31T11:52:56.737Z,14.10
2022-08-31T11:55:28.600Z,15.95
2022-08-31T11:58:07.670Z,18.85
2022-08-31T12:01:00.068Z,19.58
2022-08-31T12:03:51.510Z,17.35
2022-08-31T12:06:25.537Z,16.90
2022-08-31T12:09:27.951Z,18.15
2022-08-31T12:11:55.251Z,16.63
2022-08-31T12:14:59.767Z,25.73
2022-08-31T12:17:35.862Z,19.00
2022-08-31T12:20:21.221Z,20.83
2022-08-31T12:23:38.129Z,14.40
2022-08-31T12:26:25.718Z,17.95
2022-08-31T12:29:22.886Z,20.67
2022-08-31T12:32:08.732Z,22.08
2022-08-31T12:35:18.590Z,21.13
2022-08-31T12:38:03.371Z,21.23
2022-08-31T12:40:42.238Z,24.25
2022-08-31T12:43:38.993Z,22.15
2022-08-31T12:46:37.200Z,16.48
2022-08-31T12:49:24.570Z,15.10
2022-08-31T12:52:13.838Z,13.23
2022-08-31T12:54:53.147Z,14.65
2022-08-31T12:57:56.171Z,18.63
2022-08-31T13:00:27.827Z,23.08
2022-08-31T13:03:08.564Z,16.38
2022-08-31T13:05:38.832Z,16.70
2022-08-31T13:08:27.526Z,19.48
2022-08-31T13:11:11.865Z,20.40
2022-08-31T13:13:39.197Z,17.90
2022-08-31T13:16:08.094Z,13.90
2022-08-31T13:18:36.842Z,17.38
2022-08-31T13:21:07.383Z,11.55
2022-08-31T13:23:46.072Z,9.98
2022-08-31T13:26:25.927Z,9.55
2022-08-31T13:29:00.776Z,12.38
2022-08-31T13:31:32.390Z,10.38
2022-08-31T13:34:07.285Z,10.20
2022-08-31T13:36:59.760Z,8.23
2022-08-31T13:39:28.453Z,6.43
2022-08-31T13:42:24.192Z,10.23
2022-08-31T13:44:58.200Z,9.43
2022-08-31T13:47:53.382Z,6.95
2022-08-31T13:50:31.322Z,5.68
2022-08-31T13:53:25.787Z,7.47
2022-08-31T13:55:51.850Z,5.82
2022-08-31T13:58:28.916Z,5.35
2022-08-31T14:01:26.800Z,4.53
2022-08-31T14:04:01.082Z,5.53
2022-08-31T14:06:37.928Z,7.22
2022-08-31T14:09:14.633Z,4.03
2022-08-31T14:12:03.113Z,9.07
2022-08-31T14:14:43.528Z,7.05
2022-08-31T14:17:15.581Z,6.45
2022-08-31T14:19:45.134Z,4.45
2022-08-31T14:22:35.414Z,6.85
2022-08-31T14:25:03.896Z,3.70
2022-08-31T14:27:36.617Z,4.80
2022-08-31T14:30:06.572Z,4.68
2022-08-31T14:32:36.500Z,4.85
2022-08-31T14:35:11.641Z,5.75
2022-08-31T14:37:44.075Z,5.45
2022-08-31T14:40:14.063Z,11.30
2022-08-31T14:42:44.236Z,8.65
2022-08-31T14:45:18.618Z,7.47
2022-08-31T14:47:52.265Z,4.78
2022-08-31T14:50:24.756Z,10.15
2022-08-31T14:52:58.089Z,7.05
2022-08-31T14:55:27.395Z,5.35
2022-08-31T14:58:01.905Z,10.70
2022-08-31T15:00:31.772Z,22.90
2022-08-31T15:03:01.159Z,7.75
2022-08-31T15:05:34.119Z,11.95
2022-08-31T15:08:06.110Z,11.13
2022-08-31T15:10:35.938Z,6.53
2022-08-31T15:13:05.617Z,8.27
2022-08-31T15:15:36.178Z,10.07
2022-08-31T15:18:06.507Z,6.82
2022-08-31T15:20:39.913Z,8.70
2022-08-31T15:23:08.549Z,7.65
2022-08-31T15:25:39.294Z,7.07
2022-08-31T15:28:08.593Z,9.60
2022-08-31T15:30:39.762Z,5.70
2022-08-31T15:33:11.046Z,6.65
2022-08-31T15:35:41.759Z,8.60
2022-08-31T15:38:10.421Z,8.25
2022-08-31T15:40:39.186Z,5.40
2022-08-31T15:43:15.424Z,3.33
2022-08-31T15:45:43.028Z,7.28
2022-08-31T15:48:28.859Z,4.72
2022-08-31T15:51:01.296Z,7.10
2022-08-31T15:53:30.535Z,6.65
2022-08-31T15:56:05.487Z,4.20
2022-08-31T15:58:34.072Z,5.18
2022-08-31T16:01:12.630Z,3.50
2022-08-31T16:03:42.039Z,6.70
2022-08-31T16:06:12.754Z,5.75
2022-08-31T16:08:41.317Z,6.88
2022-08-31T16:11:12.109Z,4.15
2022-08-31T16:13:57.847Z,6.75
2022-08-31T16:16:36.877Z,3.25
2022-08-31T16:19:08.353Z,5.13
2022-08-31T16:21:39.712Z,5.70
2022-08-31T16:24:09.819Z,4.97
2022-08-31T16:26:43.243Z,3.92
2022-08-31T16:29:15.324Z,4.95
2022-08-31T16:31:44.146Z,4.22
2022-08-31T16:34:12.633Z,7.13
2022-08-31T16:36:40.888Z,6.97
2022-08-31T16:39:11.995Z,4.43
2022-08-31T16:41:39.229Z,3.75
2022-08-31T16:44:19.590Z,5.75
2022-08-31T16:46:52.299Z,4.03
2022-08-31T16:49:40.430Z,5.70
2022-08-31T16:52:14.738Z,5.43
2022-08-31T16:54:44.936Z,5.32
2022-08-31T16:57:15.944Z,4.57
2022-08-31T16:59:46.522Z,7.80
2022-08-31T17:02:16.110Z,6.35
2022-08-31T17:04:53.351Z,7.05
2022-08-31T17:07:24.856Z,5.03
2022-08-31T17:10:03.868Z,4.80
2022-08-31T17:12:38.274Z,7.00
2022-08-31T17:15:06.016Z,6.30
2022-08-31T17:17:38.765Z,4.78
2022-08-31T17:20:09.352Z,6.80
2022-08-31T17:22:39.182Z,3.58
2022-08-31T17:25:13.113Z,6.00
2022-08-31T17:27:40.448Z,6.88
2022-08-31T17:30:08.347Z,3.33
2022-08-31T17:32:44.628Z,6.18
2022-08-31T17:35:18.325Z,7.05
2022-08-31T17:37:48.562Z,3.70
2022-08-31T17:40:16.880Z,4.07
2022-08-31T17:42:49.755Z,5.60
2022-08-31T17:45:17.681Z,4.85
2022-08-31T17:47:47.056Z,4.22
2022-08-31T17:50:20.093Z,4.10
2022-08-31T17:52:51.488Z,5.97
2022-08-31T17:55:18.771Z,8.20
2022-08-31T17:57:50.814Z,6.78
2022-08-31T18:00:22.819Z,5.80
2022-08-31T18:02:55.272Z,10.35
2022-08-31T18:05:24.619Z,5.65
2022-08-31T18:07:54.904Z,7.60
2022-08-31T18:10:22.225Z,3.78
2022-08-31T18:12:49.542Z,5.82
2022-08-31T18:15:21.327Z,4.43
2022-08-31T18:17:50.799Z,5.32
2022-08-31T18:20:20.604Z,5.40
2022-08-31T18:22:52.235Z,5.93
2022-08-31T18:25:19.991Z,5.75
2022-08-31T18:27:51.991Z,6.65
2022-08-31T18:30:19.322Z,9.52
2022-08-31T18:32:49.175Z,3.95
2022-08-31T18:35:19.682Z,4.00
2022-08-31T18:37:49.256Z,5.43
2022-08-31T18:40:34.960Z,6.85
2022-08-31T18:43:20.820Z,3.80
2022-08-31T18:45:49.811Z,3.97
2022-08-31T18:48:25.226Z,4.88
2022-08-31T18:50:53.768Z,5.40
2022-08-31T18:53:29.465Z,3.60
2022-08-31T18:56:13.502Z,4.25
2022-08-31T18:58:43.603Z,4.85
2022-08-31T19:01:15.660Z,5.40
2022-08-31T19:03:43.292Z,5.80
2022-08-31T19:06:22.775Z,7.40
2022-08-31T19:08:55.263Z,8.13
2022-08-31T19:11:23.623Z,7.15
2022-08-31T19:13:54.075Z,6.35
2022-08-31T19:16:30.836Z,6.32
2022-08-31T19:18:58.890Z,4.75
2022-08-31T19:21:31.727Z,9.88
2022-08-31T19:24:05.118Z,4.85
2022-08-31T19:26:37.249Z,4.18
2022-08-31T19:29:14.292Z,7.22
2022-08-31T19:31:46.615Z,12.07
2022-08-31T19:34:17.204Z,5.63
2022-08-31T19:36:54.457Z,6.97
2022-08-31T19:39:29.456Z,5.85
2022-08-31T19:42:00.121Z,5.13
2022-08-31T19:44:27.890Z,6.88
2022-08-31T19:46:57.429Z,5.30
2022-08-31T19:49:25.759Z,3.58
2022-08-31T19:52:00.881Z,8.00
2022-08-31T19:54:34.706Z,7.75
2022-08-31T19:57:04.086Z,5.88
2022-08-31T19:59:31.393Z,5.38
2022-08-31T20:02:05.658Z,2.97
2022-08-31T20:04:36.476Z,4.72
2022-08-31T20:07:06.582Z,5.28
2022-08-31T20:09:38.585Z,5.22
2022-08-31T20:12:06.137Z,9.77
2022-08-31T20:14:33.373Z,5.28
2022-08-31T20:17:06.270Z,8.02
2022-08-31T20:19:36.995Z,5.45
2022-08-31T20:22:10.645Z,6.75
2022-08-31T20:24:44.073Z,3.90
2022-08-31T20:27:18.455Z,7.45
2022-08-31T20:29:46.429Z,8.60
2022-08-31T20:32:13.703Z,8.27
2022-08-31T20:34:40.937Z,6.00
2022-08-31T20:37:10.761Z,7.05
2022-08-31T20:39:39.398Z,6.97
2022-08-31T20:42:09.005Z,8.70
2022-08-31T20:44:39.399Z,5.47
2022-08-31T20:47:28.129Z,9.10
2022-08-31T20:49:57.982Z,7.55
2022-08-31T20:52:28.187Z,6.82
2022-08-31T20:55:01.805Z,5.10
2022-08-31T20:57:38.905Z,5.28
2022-08-31T21:00:10.074Z,4.65
2022-08-31T21:02:41.010Z,6.03
2022-08-31T21:05:37.493Z,5.82
2022-08-31T21:08:07.287Z,5.10
2022-08-31T21:10:40.182Z,4.65
2022-08-31T21:13:12.579Z,5.60
2022-08-31T21:15:41.859Z,7.20
2022-08-31T21:18:17.897Z,5.88
2022-08-31T21:20:48.454Z,6.90
2022-08-31T21:23:21.098Z,9.13
2022-08-31T21:25:48.515Z,5.90
2022-08-31T21:28:17.419Z,5.50
2022-08-31T21:30:50.065Z,4.20
2022-08-31T21:33:19.864Z,3.95
2022-08-31T21:35:49.806Z,6.90
2022-08-31T21:38:20.024Z,5.07
2022-08-31T21:40:49.532Z,8.10
2022-08-31T21:43:22.302Z,4.30
2022-08-31T21:46:04.811Z,5.43
2022-08-31T21:48:33.582Z,5.57
2022-08-31T21:51:21.474Z,6.43
2022-08-31T21:53:51.933Z,5.15
2022-08-31T21:56:22.575Z,7.75
2022-08-31T21:58:50.522Z,7.22
2022-08-31T22:01:21.794Z,6.75
2022-08-31T22:03:50.534Z,4.72
2022-08-31T22:06:26.984Z,6.90
2022-08-31T22:09:00.231Z,4.97
2022-08-31T22:11:31.235Z,6.43
2022-08-31T22:13:59.247Z,6.82
2022-08-31T22:16:27.863Z,6.57
2022-08-31T22:19:01.394Z,9.35
2022-08-31T22:21:34.139Z,9.52
2022-08-31T22:24:05.830Z,8.55
2022-08-31T22:26:37.193Z,6.68
2022-08-31T22:29:08.750Z,6.60
2022-08-31T22:31:37.539Z,6.22
2022-08-31T22:34:09.911Z,7.32
2022-08-31T22:36:40.739Z,5.68
2022-08-31T22:39:13.430Z,8.32
2022-08-31T22:41:41.213Z,6.68
2022-08-31T22:44:16.283Z,5.18
2022-08-31T22:46:46.530Z,7.43
2022-08-31T22:49:16.046Z,5.78
2022-08-31T22:51:49.554Z,5.78
2022-08-31T22:54:19.343Z,4.75
2022-08-31T22:56:49.506Z,6.45
2022-08-31T22:59:24.592Z,7.28
2022-08-31T23:01:55.315Z,6.00
2022-08-31T23:04:25.198Z,6.63
2022-08-31T23:06:57.387Z,3.92
2022-08-31T23:09:27.798Z,4.25
2022-08-31T23:11:56.407Z,6.35
2022-08-31T23:14:26.208Z,8.93
2022-08-31T23:16:59.829Z,5.97
2022-08-31T23:19:38.466Z,3.97
2022-08-31T23:22:10.570Z,4.35
2022-08-31T23:24:43.206Z,5.30
2022-08-31T23:27:11.584Z,8.23
2022-08-31T23:29:46.111Z,4.70
2022-08-31T23:32:21.394Z,7.10
2022-08-31T23:34:51.275Z,7.45
2022-08-31T23:37:25.712Z,6.82
2022-08-31T23:39:55.921Z,6.22
2022-08-31T23:42:29.879Z,5.97
2022-08-31T23:44:57.963Z,6.93
2022-08-31T23:47:31.502Z,6.55
2022-08-31T23:50:08.039Z,5.00
2022-08-31T23:52:41.659Z,6.85
2022-08-31T23:55:11.076Z,6.65
2022-08-31T23:57:39.559Z,5.00
